Time;durP1;ratioP1;P1;durP2;ratioP2;P2;SDS_P1;SDS_P2;PMS_P1;PMS_P2;Temp;Humidity;BMP_temperature;BMP_pressure;BME280_temperature;BME280_humidity;BME280_pressure;Samples;Min_cycle;Max_cycle;Signal;HPM_P1;HPM_P2
2022/09/03 00:00:36;;;;;;;2.13;1.67;;;;;;;23.24;49.52;100698.34;4859973;29;20057;-76
2022/09/03 00:03:17;;;;;;;4.00;2.10;;;;;;;23.24;48.64;100698.34;4860250;29;20057;-76
2022/09/03 00:06:01;;;;;;;2.50;2.30;;;;;;;23.35;48.99;100685.47;4859672;29;20408;-76
2022/09/03 00:08:37;;;;;;;5.70;2.80;;;;;;;23.27;48.75;100694.03;4859702;29;20065;-76
2022/09/03 00:11:17;;;;;;;3.80;2.40;;;;;;;23.23;48.42;100691.94;4859620;29;20065;-77
2022/09/03 00:14:24;;;;;;;3.97;2.80;;;;;;;23.17;49.33;100704.56;4858809;29;20064;-77
2022/09/03 00:17:38;;;;;;;4.05;2.90;;;;;;;23.09;49.42;100708.38;4859274;29;20389;-77
2022/09/03 00:20:21;;;;;;;3.40;2.90;;;;;;;23.08;49.03;100715.94;4827289;29;20054;-76
2022/09/03 00:22:56;;;;;;;4.90;3.20;;;;;;;23.17;49.09;100714.94;4858721;29;20481;-77
2022/09/03 00:25:43;;;;;;;5.20;2.70;;;;;;;23.32;48.41;100704.94;4859334;29;20054;-77
2022/09/03 00:28:17;;;;;;;3.67;2.25;;;;;;;23.38;48.50;100708.25;4860130;29;20049;-77
2022/09/03 00:30:52;;;;;;;3.97;2.20;;;;;;;23.29;48.57;100714.81;4859495;29;20053;-77
2022/09/03 00:33:25;;;;;;;3.53;2.42;;;;;;;23.27;48.68;100714.38;4859528;29;20394;-77
2022/09/03 00:36:01;;;;;;;2.55;2.17;;;;;;;23.29;48.89;100717.63;4858839;29;20520;-77
2022/09/03 00:38:32;;;;;;;2.95;2.53;;;;;;;23.19;48.83;100709.81;4850866;29;20045;-76
2022/09/03 00:41:24;;;;;;;3.60;2.67;;;;;;;23.26;49.05;100714.75;4861262;29;20045;-76
2022/09/03 00:44:25;;;;;;;2.42;2.22;;;;;;;23.21;49.32;100716.63;4860237;29;20042;-76
2022/09/03 00:47:14;;;;;;;3.20;2.90;;;;;;;23.23;49.18;100716.28;4848723;29;20056;-76
2022/09/03 00:49:42;;;;;;;2.88;2.53;;;;;;;23.23;49.53;100716.28;4859659;29;20057;-76
2022/09/03 00:52:25;;;;;;;2.83;2.63;;;;;;;23.19;49.39;100718.19;4859681;29;20058;-77
2022/09/03 00:55:26;;;;;;;3.28;2.70;;;;;;;23.13;50.07;100712.09;4859346;29;20054;-76
2022/09/03 00:58:19;;;;;;;6.72;2.88;;;;;;;23.15;50.23;100711.69;4859595;29;20058;-76
2022/09/03 01:00:51;;;;;;;3.10;2.88;;;;;;;23.13;49.20;100714.88;4859048;29;20045;-76
2022/09/03 01:03:38;;;;;;;3.28;2.45;;;;;;;23.11;49.74;100728.38;4859521;29;20046;-77
2022/09/03 01:06:22;;;;;;;3.13;2.35;;;;;;;23.10;49.88;100726.75;4859524;29;20429;-76
2022/09/03 01:09:01;;;;;;;3.47;2.25;;;;;;;23.17;49.88;100723.31;4859517;29;20049;-76
2022/09/03 01:11:58;;;;;;;2.97;2.67;;;;;;;23.27;50.13;100731.13;4859547;29;20053;-76
2022/09/03 01:15:03;;;;;;;3.08;2.22;;;;;;;23.42;50.14;100728.69;4859394;29;20088;-76
2022/09/03 01:17:49;;;;;;;;;;;;;;;23.51;50.52;100734.84;4854067;29;20073;-76
2022/09/03 01:20:23;;;;;;;3.40;2.38;;;;;;;23.55;49.18;100734.97;4859518;29;19924;-76
2022/09/03 01:23:13;;;;;;;3.78;2.38;;;;;;;23.56;49.26;100726.19;4859059;29;20053;-76
2022/09/03 01:25:52;;;;;;;2.58;2.30;;;;;;;23.59;49.25;100727.44;4858994;29;20373;-76
2022/09/03 01:28:32;;;;;;;2.80;2.47;;;;;;;23.62;49.27;100727.53;4858928;29;20065;-76
2022/09/03 01:30:59;;;;;;;3.65;2.55;;;;;;;23.75;49.13;100716.22;4849445;29;20081;-77
2022/09/03 01:33:37;;;;;;;5.47;2.53;;;;;;;23.77;49.62;100722.25;4859394;29;20046;-76
2022/09/03 01:36:24;;;;;;;4.07;2.58;;;;;;;23.81;50.09;100723.16;4844642;29;20046;-76
2022/09/03 01:39:00;;;;;;;2.58;2.38;;;;;;;23.73;49.86;100718.56;4852314;29;20042;-76
2022/09/03 01:44:38;;;;;;;;;;;;;;;23.54;52.21;100720.19;4859906;29;20061;-76
2022/09/03 01:47:25;;;;;;;4.95;2.78;;;;;;;23.61;52.32;100723.13;4859116;29;20260;-76
2022/09/03 01:50:10;;;;;;;3.83;2.90;;;;;;;23.47;52.37;100722.81;4859143;29;20100;-76
2022/09/03 01:52:55;;;;;;;5.28;2.92;;;;;;;23.33;53.58;100723.31;4859476;29;20056;-76
2022/09/03 01:56:04;;;;;;;5.45;2.50;;;;;;;23.42;52.96;100731.47;4859035;29;20053;-76
2022/09/03 01:58:41;;;;;;;3.00;2.80;;;;;;;23.32;53.93;100728.06;4859212;29;20064;-76
2022/09/03 02:01:19;;;;;;;3.40;3.10;;;;;;;23.18;53.40;100734.09;4859363;29;20382;-76
2022/09/03 02:03:49;;;;;;;3.10;2.60;;;;;;;23.32;52.83;100730.88;4859167;29;20057;-76
2022/09/03 02:06:20;;;;;;;6.10;3.10;;;;;;;23.34;52.20;100731.34;4859072;29;20054;-76
2022/09/03 02:08:48;;;;;;;4.28;2.53;;;;;;;23.31;52.85;100732.03;4859148;29;20042;-76
2022/09/03 02:11:16;;;;;;;2.85;2.40;;;;;;;23.11;52.83;100727.56;4861503;29;20084;-76
2022/09/03 02:13:48;;;;;;;2.90;2.63;;;;;;;23.23;52.54;100727.44;4862378;29;20061;-76
2022/09/03 02:16:21;;;;;;;3.67;2.80;;;;;;;22.97;53.13;100723.25;4862505;29;20050;-76
2022/09/03 02:19:10;;;;;;;5.50;2.92;;;;;;;23.02;53.50;100724.97;4862418;29;20068;-76
2022/09/03 02:21:59;;;;;;;2.72;2.53;;;;;;;22.84;53.51;100730.09;4862138;29;20061;-76
2022/09/03 02:24:27;;;;;;;6.28;2.95;;;;;;;22.85;54.43;100721.38;4862152;29;20058;-76
2022/09/03 02:26:56;;;;;;;3.72;2.70;;;;;;;22.97;53.66;100731.63;4862250;29;20045;-76
2022/09/03 02:29:24;;;;;;;2.80;2.60;;;;;;;22.75;54.15;100719.94;4862088;29;20049;-76
2022/09/03 02:31:53;;;;;;;3.22;2.85;;;;;;;22.75;53.80;100728.31;4862368;29;20037;-76
2022/09/03 02:34:21;;;;;;;3.47;2.97;;;;;;;22.51;54.04;100729.25;4861774;29;20065;-76
2022/09/03 02:36:49;;;;;;;4.82;3.47;;;;;;;22.66;54.10;100730.47;4853858;29;20054;-76
2022/09/03 02:39:18;;;;;;;5.32;3.53;;;;;;;22.62;54.58;100724.00;4857729;29;20501;-76
2022/09/03 02:41:54;;;;;;;3.22;3.03;;;;;;;22.45;54.65;100728.72;4861121;29;20034;-76
2022/09/03 02:44:34;;;;;;;5.47;3.78;;;;;;;22.19;56.19;100718.06;4861882;29;20054;-76
2022/09/03 02:47:06;;;;;;;4.28;3.88;;;;;;;22.14;56.22;100716.38;4852186;29;20493;-76
2022/09/03 02:49:35;;;;;;;5.60;4.93;;;;;;;22.26;56.21;100729.41;4861356;29;20052;-76
2022/09/03 02:52:08;;;;;;;5.68;4.75;;;;;;;22.40;55.88;100734.56;4861796;29;20055;-76
2022/09/03 02:54:38;;;;;;;5.25;4.70;;;;;;;22.52;55.77;100728.13;4861837;29;20054;-76
2022/09/03 02:57:08;;;;;;;6.75;5.13;;;;;;;22.61;54.84;100739.09;4861744;29;20045;-77
2022/09/03 02:59:38;;;;;;;5.82;4.20;;;;;;;22.53;55.71;100738.91;4861572;29;20072;-76
2022/09/03 03:02:06;;;;;;;6.60;4.57;;;;;;;22.68;54.64;100739.31;4861739;29;20052;-76
2022/09/03 03:04:34;;;;;;;7.07;5.90;;;;;;;22.67;55.22;100743.22;4861099;29;20060;-76
2022/09/03 03:07:02;;;;;;;5.07;4.20;;;;;;;22.54;56.59;100748.09;4861373;29;20042;-76
2022/09/03 03:09:30;;;;;;;4.40;3.85;;;;;;;22.71;56.74;100746.94;4861362;29;20053;-76
2022/09/03 03:11:58;;;;;;;4.30;3.90;;;;;;;22.76;56.57;100746.66;4860888;29;20049;-76
2022/09/03 03:14:26;;;;;;;5.75;3.72;;;;;;;22.83;56.72;100751.63;4861078;29;20053;-76
2022/09/03 03:16:54;;;;;;;4.28;3.88;;;;;;;22.77;57.06;100748.28;4862955;29;20049;-76
2022/09/03 03:19:22;;;;;;;5.00;3.97;;;;;;;22.68;57.35;100748.47;4870631;29;20052;-77
2022/09/03 03:21:52;;;;;;;5.60;4.25;;;;;;;22.76;57.82;100745.84;4860188;29;20057;-76
2022/09/03 03:24:20;;;;;;;4.30;3.70;;;;;;;22.68;57.60;100756.81;4861191;29;20065;-76
2022/09/03 03:26:49;;;;;;;5.90;4.15;;;;;;;22.55;57.27;100758.88;4860478;29;20041;-76
2022/09/03 03:29:17;;;;;;;4.38;3.97;;;;;;;22.62;57.37;100746.31;4860811;29;20584;-76
2022/09/03 03:31:45;;;;;;;3.95;3.65;;;;;;;22.66;57.94;100761.16;4861240;29;20397;-76
2022/09/03 03:34:13;;;;;;;4.50;3.88;;;;;;;22.61;57.87;100759.44;4861074;29;20069;-76
2022/09/03 03:36:41;;;;;;;4.60;4.13;;;;;;;22.68;57.56;100759.63;4853382;29;20080;-76
2022/09/03 03:39:09;;;;;;;5.43;4.30;;;;;;;22.80;57.51;100758.75;4855350;29;20053;-76
2022/09/03 03:41:38;;;;;;;4.13;3.72;;;;;;;22.82;56.95;100761.97;4860756;29;20053;-76
2022/09/03 03:44:07;;;;;;;4.82;4.30;;;;;;;22.79;56.84;100750.72;4861002;29;20053;-76
2022/09/03 03:46:40;;;;;;;5.85;4.60;;;;;;;22.80;57.35;100746.75;4862595;29;20045;-76
2022/09/03 03:49:09;;;;;;;4.87;3.90;;;;;;;22.80;57.05;100749.53;4859947;29;20054;-76
2022/09/03 03:51:39;;;;;;;5.53;3.88;;;;;;;23.03;56.46;100746.13;4860783;29;20037;-76
2022/09/03 03:54:07;;;;;;;4.47;4.07;;;;;;;22.88;56.63;100736.59;4860520;29;20098;-76
2022/09/03 03:56:35;;;;;;;4.75;4.25;;;;;;;22.82;57.08;100734.06;4861144;29;20504;-76
2022/09/03 03:59:03;;;;;;;6.28;4.22;;;;;;;22.79;57.19;100723.63;4860491;29;20050;-76
2022/09/03 04:01:31;;;;;;;4.90;4.30;;;;;;;22.67;57.29;100729.28;4859948;29;20057;-76
2022/09/03 04:03:59;;;;;;;5.38;4.00;;;;;;;22.59;57.39;100735.88;4860207;29;20062;-76
2022/09/03 04:06:28;;;;;;;5.57;4.30;;;;;;;22.55;57.40;100731.00;4860445;29;20053;-76
2022/09/03 04:08:56;;;;;;;5.78;4.90;;;;;;;22.54;58.35;100731.38;4860571;29;20053;-76
2022/09/03 04:11:25;;;;;;;5.88;4.57;;;;;;;22.48;58.47;100724.41;4860581;29;20045;-76
2022/09/03 04:13:53;;;;;;;5.40;4.10;;;;;;;22.36;58.67;100737.25;4859048;29;20505;-76
2022/09/03 04:16:24;;;;;;;4.85;4.03;;;;;;;22.44;58.79;100729.06;4860129;29;20046;-76
2022/09/03 04:18:54;;;;;;;4.60;3.90;;;;;;;22.34;59.38;100722.06;4859924;29;20401;-77
2022/09/03 04:21:24;;;;;;;5.60;3.90;;;;;;;22.23;59.29;100717.00;4859492;29;20064;-76
2022/09/03 04:23:56;;;;;;;5.23;4.20;;;;;;;22.22;59.72;100717.34;4860356;29;20060;-75
2022/09/03 04:26:31;;;;;;;8.15;3.97;;;;;;;22.43;59.17;100722.69;4859796;29;20056;-77
2022/09/03 04:29:03;;;;;;;8.32;4.60;;;;;;;22.40;59.49;100717.84;4852324;29;20054;-76
2022/09/03 04:31:32;;;;;;;4.70;4.05;;;;;;;22.40;59.63;100712.25;4859657;29;20049;-77
2022/09/03 04:34:00;;;;;;;5.60;4.38;;;;;;;22.43;59.50;100708.75;4859726;29;20056;-76
2022/09/03 04:36:30;;;;;;;5.47;4.15;;;;;;;22.34;59.78;100708.13;4854399;29;20054;-76
2022/09/03 04:39:00;;;;;;;8.35;4.85;;;;;;;22.33;59.57;100704.50;4857661;29;20050;-77
2022/09/03 04:41:30;;;;;;;5.68;4.18;;;;;;;22.38;59.18;100715.41;4859769;29;20397;-76
2022/09/03 04:43:59;;;;;;;7.00;4.50;;;;;;;22.39;58.86;100710.66;4859980;29;20493;-77
2022/09/03 04:46:31;;;;;;;7.07;4.68;;;;;;;22.39;59.48;100719.81;4859157;29;20050;-77
2022/09/03 04:49:01;;;;;;;6.35;4.03;;;;;;;22.33;59.58;100728.81;4859761;29;20486;-76
2022/09/03 04:51:30;;;;;;;4.68;4.05;;;;;;;22.66;58.61;100727.69;4857644;29;20060;-79
2022/09/03 04:54:01;;;;;;;7.70;4.22;;;;;;;22.72;57.88;100723.44;4860330;29;20056;-80
2022/09/03 04:56:32;;;;;;;9.32;4.43;;;;;;;23.25;56.50;100736.25;4859755;29;20053;-80
2022/09/03 04:59:03;;;;;;;7.80;3.85;;;;;;;23.52;55.19;100730.09;4859702;29;20050;-80
2022/09/03 05:01:35;;;;;;;4.85;3.88;;;;;;;23.72;54.54;100716.97;4862775;29;20408;-80
2022/09/03 05:04:04;;;;;;;4.25;3.65;;;;;;;23.71;54.17;100718.13;4858097;29;20050;-80
2022/09/03 05:06:33;;;;;;;8.40;4.00;;;;;;;23.86;54.28;100717.25;4857491;29;20794;-80
2022/09/03 05:09:03;;;;;;;4.82;3.70;;;;;;;24.22;53.23;100717.16;4858213;29;20045;-80
2022/09/03 05:11:31;;;;;;;4.57;4.18;;;;;;;24.24;52.48;100714.00;4873631;29;20054;-79
2022/09/03 05:13:59;;;;;;;5.90;4.35;;;;;;;23.94;53.53;100718.19;4847772;29;20056;-80
2022/09/03 05:16:29;;;;;;;7.03;3.95;;;;;;;24.22;52.81;100719.16;4863095;29;20128;-80
2022/09/03 05:18:59;;;;;;;3.95;3.65;;;;;;;23.81;53.53;100725.94;4859824;29;20041;-80
2022/09/03 05:21:28;;;;;;;4.78;4.25;;;;;;;23.91;53.44;100737.69;4859242;29;20054;-80
2022/09/03 05:23:58;;;;;;;3.40;3.10;;;;;;;23.97;53.45;100731.44;4859327;29;20057;-80
2022/09/03 05:26:29;;;;;;;4.28;3.30;;;;;;;24.25;52.94;100732.41;4858101;29;20076;-80
2022/09/03 05:28:59;;;;;;;4.07;3.58;;;;;;;24.46;52.23;100736.75;4859017;29;20053;-81
2022/09/03 05:31:30;;;;;;;3.97;3.05;;;;;;;24.37;52.13;100740.59;4857914;29;20068;-80
2022/09/03 05:34:03;;;;;;;3.40;3.00;;;;;;;24.16;52.64;100741.81;4859345;29;20057;-80
2022/09/03 05:36:34;;;;;;;4.85;3.50;;;;;;;23.89;53.34;100750.03;4866803;29;20065;-80
2022/09/03 05:39:04;;;;;;;5.40;3.38;;;;;;;24.10;52.59;100743.28;4852878;29;20417;-80
2022/09/03 05:41:33;;;;;;;3.13;2.78;;;;;;;24.27;52.74;100746.81;4859568;29;20049;-80
2022/09/03 05:44:02;;;;;;;4.28;3.08;;;;;;;24.38;52.13;100731.03;4859234;29;20052;-80
2022/09/03 05:46:32;;;;;;;3.90;2.67;;;;;;;24.63;51.44;100736.25;4859372;29;20057;-80
2022/09/03 05:49:03;;;;;;;4.45;2.63;;;;;;;24.69;50.81;100731.97;4861020;29;20422;-80
2022/09/03 05:51:33;;;;;;;3.70;2.55;;;;;;;24.72;50.46;100718.44;4861621;29;20061;-80
2022/09/03 05:54:02;;;;;;;3.63;2.92;;;;;;;24.79;50.34;100721.34;4846169;29;20050;-80
2022/09/03 05:56:32;;;;;;;4.60;3.03;;;;;;;24.86;50.13;100720.66;4847986;29;20058;-81
2022/09/03 05:59:04;;;;;;;2.58;2.38;;;;;;;24.68;50.80;100716.38;4862765;29;20052;-81
2022/09/03 06:01:34;;;;;;;3.60;2.45;;;;;;;24.56;51.83;100705.38;4862320;29;20053;-81
2022/09/03 06:04:02;;;;;;;7.00;3.22;;;;;;;24.76;51.83;100708.09;4861015;29;20053;-81
2022/09/03 06:06:33;;;;;;;5.20;2.70;;;;;;;24.77;51.10;100701.28;4858286;29;20049;-81
2022/09/03 06:09:05;;;;;;;2.80;2.28;;;;;;;24.86;50.89;100693.50;4862211;29;20120;-81
2022/09/03 06:11:34;;;;;;;4.22;3.08;;;;;;;25.02;50.31;100695.34;4857413;29;20054;-81
2022/09/03 06:14:07;;;;;;;3.05;2.85;;;;;;;24.94;50.58;100694.41;4854319;29;20061;-81
2022/09/03 06:16:39;;;;;;;5.65;3.30;;;;;;;24.96;50.60;100694.84;4866617;29;20060;-81
2022/09/03 06:19:09;;;;;;;4.65;2.85;;;;;;;25.03;50.59;100696.94;4845553;29;20053;-81
2022/09/03 06:21:41;;;;;;;4.20;2.83;;;;;;;25.25;50.18;100688.84;4860046;29;20413;-81
2022/09/03 06:24:11;;;;;;;4.68;2.97;;;;;;;25.37;49.89;100702.63;4876420;29;20065;-81
2022/09/03 06:26:42;;;;;;;4.60;3.20;;;;;;;25.08;50.79;100702.22;4888538;29;20373;-81
2022/09/03 06:29:11;;;;;;;12.90;3.15;;;;;;;25.30;50.68;100700.53;4862031;29;20405;-81
2022/09/03 06:31:42;;;;;;;8.25;3.47;;;;;;;25.33;51.83;100704.56;4875759;29;20497;-81
2022/09/03 06:34:10;;;;;;;3.72;2.53;;;;;;;25.46;50.96;100708.75;4860360;29;20061;-81
2022/09/03 06:36:40;;;;;;;6.65;2.95;;;;;;;25.52;50.59;100714.03;4854443;29;20065;-81
2022/09/03 06:39:08;;;;;;;4.03;3.13;;;;;;;25.76;49.59;100718.38;4856553;29;20061;-81
2022/09/03 06:41:36;;;;;;;4.00;2.83;;;;;;;25.73;49.74;100707.91;4859868;29;20060;-81
2022/09/03 06:44:10;;;;;;;3.80;3.38;;;;;;;25.48;51.31;100717.56;4861941;29;20054;-81
2022/09/03 06:46:42;;;;;;;3.30;3.00;;;;;;;25.35;50.83;100716.19;4847897;29;20052;-81
2022/09/03 06:49:12;;;;;;;5.60;3.60;;;;;;;25.41;50.14;100719.50;4860594;29;20049;-81
2022/09/03 06:51:42;;;;;;;6.20;4.03;;;;;;;25.31;50.11;100729.38;4860367;29;20401;-81
2022/09/03 06:54:11;;;;;;;5.40;3.45;;;;;;;25.49;49.84;100721.19;4861581;29;20050;-81
2022/09/03 06:56:40;;;;;;;5.68;3.70;;;;;;;25.48;49.36;100717.56;4858591;29;20065;-81
2022/09/03 06:59:11;;;;;;;3.42;3.05;;;;;;;25.57;49.57;100722.13;4861242;29;20046;-82
2022/09/03 07:01:41;;;;;;;5.22;3.35;;;;;;;25.72;47.70;100721.09;4860192;29;20052;-82
2022/09/03 07:04:15;;;;;;;5.80;3.58;;;;;;;25.65;48.48;100728.63;4860337;29;20060;-82
2022/09/03 07:06:46;;;;;;;5.13;3.15;;;;;;;25.78;47.99;100727.19;4859690;29;20060;-81
2022/09/03 07:09:16;;;;;;;3.65;3.00;;;;;;;25.87;46.45;100733.31;4848365;29;20048;-81
2022/09/03 07:11:45;;;;;;;7.15;2.90;;;;;;;25.99;45.52;100743.47;4875763;29;20397;-82
2022/09/03 07:14:17;;;;;;;6.50;2.90;;;;;;;25.87;45.21;100733.31;4875651;29;20072;-82
2022/09/03 07:16:48;;;;;;;2.58;2.30;;;;;;;25.57;45.26;100736.13;4860066;29;20065;-83
2022/09/03 07:19:16;;;;;;;2.50;2.25;;;;;;;25.65;45.26;100726.63;4859983;29;20501;-81
2022/09/03 07:21:46;;;;;;;5.13;2.38;;;;;;;25.50;44.53;100750.81;4858563;29;20080;-82
2022/09/03 07:24:45;;;;;;;4.32;2.90;;;;;;;25.62;44.70;100731.00;4858681;29;20049;-82
2022/09/03 07:27:16;;;;;;;3.45;2.35;;;;;;;25.81;44.09;100734.81;4876408;29;20557;-81
2022/09/03 07:29:45;;;;;;;3.72;2.03;;;;;;;25.91;44.31;100727.75;4859072;29;20050;-78
2022/09/03 07:32:14;;;;;;;3.45;2.40;;;;;;;26.05;44.14;100729.09;4889643;29;20052;-81
2022/09/03 07:34:43;;;;;;;4.75;2.75;;;;;;;26.15;43.65;100720.78;4858370;29;20050;-81
2022/09/03 07:37:11;;;;;;;3.05;2.72;;;;;;;26.15;44.41;100731.22;4860395;29;20073;-81
2022/09/03 07:39:40;;;;;;;3.28;2.67;;;;;;;26.25;43.41;100732.56;4860821;29;20049;-81
2022/09/03 07:42:09;;;;;;;4.28;2.70;;;;;;;26.43;43.77;100730.72;4868529;29;20054;-81
2022/09/03 07:44:38;;;;;;;2.80;2.35;;;;;;;26.48;44.24;100737.19;4859605;29;20397;-81
2022/09/03 07:47:06;;;;;;;4.63;2.92;;;;;;;26.41;44.38;100738.75;4858948;29;20088;-81
2022/09/03 07:49:35;;;;;;;4.15;2.33;;;;;;;26.48;44.00;100743.59;4858263;29;20064;-80
2022/09/03 07:52:03;;;;;;;9.60;3.03;;;;;;;26.36;44.91;100746.69;4859441;29;20045;-80
2022/09/03 07:54:31;;;;;;;9.35;2.47;;;;;;;26.54;44.78;100746.88;4842370;29;20048;-82
2022/09/03 07:56:59;;;;;;;7.00;2.28;;;;;;;26.64;43.64;100746.13;4858594;29;20045;-81
2022/09/03 07:59:27;;;;;;;3.08;2.50;;;;;;;26.91;43.11;100754.44;4855894;29;20064;-83
2022/09/03 08:01:55;;;;;;;3.85;2.70;;;;;;;26.73;44.30;100751.44;4860283;29;20042;-82
2022/09/03 08:04:24;;;;;;;4.05;2.88;;;;;;;26.89;43.39;100755.97;4874207;29;20053;-81
2022/09/03 08:06:54;;;;;;;4.88;2.80;;;;;;;27.01;44.11;100763.31;4857895;29;20048;-80
2022/09/03 08:09:22;;;;;;;4.13;3.38;;;;;;;26.83;44.90;100773.19;4857010;29;20057;-80
2022/09/03 08:11:50;;;;;;;4.07;3.25;;;;;;;26.76;45.28;100775.94;4858797;29;20046;-80
2022/09/03 08:14:18;;;;;;;4.75;2.83;;;;;;;26.75;44.67;100771.50;4860425;29;20579;-79
2022/09/03 08:16:47;;;;;;;2.97;2.60;;;;;;;26.90;43.80;100780.03;4857421;29;20065;-79
2022/09/03 08:19:17;;;;;;;3.45;2.70;;;;;;;26.79;44.50;100780.75;4857579;29;20041;-80
2022/09/03 08:21:45;;;;;;;2.75;2.28;;;;;;;26.94;44.09;100783.72;4858901;29;20405;-80
2022/09/03 08:24:15;;;;;;;3.38;2.33;;;;;;;27.20;43.96;100781.91;4856884;29;20182;-79
2022/09/03 08:26:44;;;;;;;2.33;2.22;;;;;;;27.42;42.71;100773.63;4885792;29;20042;-79
2022/09/03 08:29:19;;;;;;;4.57;2.40;;;;;;;27.41;42.17;100786.06;4863008;29;20080;-83
2022/09/03 08:31:47;;;;;;;2.30;1.70;;;;;;;27.58;42.08;100787.41;4854448;29;20683;-79
2022/09/03 08:34:16;;;;;;;2.88;1.83;;;;;;;27.41;41.32;100802.94;4839962;29;20512;-80
2022/09/03 08:36:45;;;;;;;1.92;1.70;;;;;;;27.26;41.26;100813.25;4855255;29;20072;-80
2022/09/03 08:39:15;;;;;;;2.15;1.92;;;;;;;27.51;41.04;100807.78;4838376;29;20045;-78
2022/09/03 08:41:50;;;;;;;1.70;1.60;;;;;;;27.40;41.28;100801.28;4857910;29;20153;-80
2022/09/03 08:44:27;;;;;;;1.77;1.65;;;;;;;27.27;41.58;100810.03;4854491;29;20501;-80
2022/09/03 08:47:12;;;;;;;1.48;1.15;;;;;;;27.18;41.45;100804.75;4857793;29;20407;-80
2022/09/03 08:49:55;;;;;;;2.65;1.77;;;;;;;27.36;41.43;100798.47;4859101;29;20064;-80
2022/09/03 08:52:36;;;;;;;1.48;1.38;;;;;;;27.36;39.23;100796.47;4848825;29;20413;-79
2022/09/03 08:55:28;;;;;;;2.08;1.38;;;;;;;27.15;40.55;100796.31;4855520;29;20405;-78
2022/09/03 08:58:09;;;;;;;3.47;1.60;;;;;;;27.57;40.63;100811.06;4865073;29;20061;-79
2022/09/03 09:01:13;;;;;;;2.65;1.45;;;;;;;27.49;40.56;100807.38;4848259;29;20050;-79
2022/09/03 09:03:56;;;;;;;1.70;1.60;;;;;;;27.65;39.00;100806.31;4871006;29;20054;-80
2022/09/03 09:06:43;;;;;;;1.90;1.13;;;;;;;27.50;37.84;100809.00;4884065;29;20057;-79
2022/09/03 09:09:40;;;;;;;1.08;0.95;;;;;;;27.55;38.46;100814.25;4868368;29;20053;-81
2022/09/03 09:12:30;;;;;;;1.30;1.13;;;;;;;27.37;38.67;100814.16;4870613;29;20041;-80
2022/09/03 09:15:29;;;;;;;1.35;1.17;;;;;;;27.71;39.47;100813.19;4853769;29;20054;-80
2022/09/03 09:18:14;;;;;;;1.80;1.70;;;;;;;27.71;39.51;100811.16;4855076;29;20053;-81
2022/09/03 09:20:56;;;;;;;2.28;1.27;;;;;;;27.61;38.87;100806.31;4842977;29;20045;-80
2022/09/03 09:23:42;;;;;;;1.40;1.30;;;;;;;27.76;39.75;100802.34;4859022;29;20049;-80
2022/09/03 09:26:16;;;;;;;1.75;1.30;;;;;;;27.82;40.37;100811.22;4859902;29;20381;-80
2022/09/03 09:28:52;;;;;;;1.65;1.33;;;;;;;27.79;40.48;100816.81;4861111;29;20053;-80
2022/09/03 09:31:21;;;;;;;3.00;1.60;;;;;;;27.97;40.47;100823.34;4877954;29;20045;-79
2022/09/03 09:33:51;;;;;;;1.52;1.42;;;;;;;28.03;40.20;100823.75;4891235;29;20389;-80
2022/09/03 09:36:21;;;;;;;1.63;1.40;;;;;;;27.97;40.47;100812.09;4857165;29;20054;-79
2022/09/03 09:38:50;;;;;;;3.30;1.58;;;;;;;28.06;39.94;100820.19;4842902;29;20062;-80
2022/09/03 09:41:22;;;;;;;1.73;1.60;;;;;;;27.77;40.56;100815.19;4847653;29;20508;-80
2022/09/03 09:44:01;;;;;;;1.55;1.45;;;;;;;27.90;40.91;100801.63;4884883;29;20060;-80
2022/09/03 09:46:39;;;;;;;1.30;1.20;;;;;;;27.94;40.85;100806.47;4865135;29;20057;-80
2022/09/03 09:49:31;;;;;;;1.40;1.30;;;;;;;28.12;40.66;100809.34;4856332;29;20173;-80
2022/09/03 09:52:01;;;;;;;1.30;1.25;;;;;;;28.07;40.11;100813.34;4861874;29;20057;-80
2022/09/03 09:54:30;;;;;;;1.50;1.40;;;;;;;28.28;39.66;100809.00;4886453;29;20057;-80
2022/09/03 09:57:03;;;;;;;16.30;3.45;;;;;;;28.22;40.25;100810.56;4860046;29;20056;-80
2022/09/03 09:59:36;;;;;;;1.58;1.48;;;;;;;28.55;38.63;100820.72;4858859;29;20053;-80
2022/09/03 10:02:19;;;;;;;3.65;1.50;;;;;;;28.80;38.43;100807.91;4857257;29;20054;-81
2022/09/03 10:04:49;;;;;;;1.20;1.10;;;;;;;28.57;38.62;100811.91;4855070;29;20598;-80
2022/09/03 10:07:31;;;;;;;1.50;1.40;;;;;;;28.56;38.87;100808.28;4873003;29;20493;-81
2022/09/03 10:10:20;;;;;;;2.17;1.05;;;;;;;28.52;38.76;100815.09;4855427;29;20046;-80
2022/09/03 10:13:00;;;;;;;1.42;1.30;;;;;;;28.74;39.00;100826.41;4860362;29;20583;-80
2022/09/03 10:15:49;;;;;;;1.73;1.48;;;;;;;28.79;38.15;100814.75;4859527;29;20054;-78
2022/09/03 10:18:27;;;;;;;1.63;1.50;;;;;;;28.87;39.61;100812.78;4859931;29;20050;-81
2022/09/03 10:21:06;;;;;;;1.60;1.48;;;;;;;28.73;38.67;100821.97;4874177;29;20045;-79
2022/09/03 10:24:14;;;;;;;2.17;1.30;;;;;;;28.99;37.46;100818.00;4860374;29;20405;-80
2022/09/03 10:26:44;;;;;;;1.88;1.40;;;;;;;28.92;37.97;100821.63;4858779;29;20054;-80
2022/09/03 10:29:20;;;;;;;1.52;1.40;;;;;;;28.97;38.27;100809.97;4863643;29;20503;-81
2022/09/03 10:32:11;;;;;;;3.20;1.35;;;;;;;28.88;37.43;100815.16;4852695;29;20050;-81
2022/09/03 10:35:02;;;;;;;1.65;1.55;;;;;;;28.56;38.73;100821.53;4855020;29;20044;-80
2022/09/03 10:37:46;;;;;;;2.17;1.25;;;;;;;28.67;38.71;100811.13;4859807;29;20062;-78
2022/09/03 10:40:29;;;;;;;1.65;1.55;;;;;;;28.76;39.15;100805.09;4859643;29;20076;-80
2022/09/03 10:43:05;;;;;;;2.63;1.52;;;;;;;29.00;39.24;100813.16;4857127;29;20076;-81
2022/09/03 10:45:58;;;;;;;;;;;;;;;29.21;39.48;100818.81;4857544;29;20057;-79
2022/09/03 10:48:33;;;;;;;2.30;1.73;;;;;;;29.11;38.71;100819.59;4859170;29;19935;-80
2022/09/03 10:51:25;;;;;;;2.22;1.33;;;;;;;28.20;39.77;100812.97;4860422;29;20049;-79
2022/09/03 10:54:03;;;;;;;1.30;1.20;;;;;;;28.56;38.96;100811.09;4850641;29;20057;-80
2022/09/03 10:56:48;;;;;;;1.88;1.50;;;;;;;28.56;38.56;100804.66;4860496;29;20750;-79
2022/09/03 10:59:19;;;;;;;1.85;1.70;;;;;;;28.89;39.16;100819.63;4854843;29;20057;-80
2022/09/03 11:01:59;;;;;;;2.35;1.73;;;;;;;28.68;39.10;100811.91;4851679;29;20053;-79
2022/09/03 11:04:43;;;;;;;1.60;1.50;;;;;;;28.91;38.16;100805.94;4874260;29;20058;-79
2022/09/03 11:07:14;;;;;;;2.58;1.55;;;;;;;29.21;38.78;100801.91;4859420;29;20049;-80
2022/09/03 11:09:45;;;;;;;1.25;1.20;;;;;;;28.93;37.77;100800.69;4860053;29;20069;-80
2022/09/03 11:12:22;;;;;;;1.20;1.20;;;;;;;29.13;38.30;100805.94;4857792;29;20062;-81
2022/09/03 11:15:04;;;;;;;1.60;1.50;;;;;;;29.13;37.59;100800.31;4859090;29;20057;-80
2022/09/03 11:17:41;;;;;;;1.63;1.35;;;;;;;29.60;37.65;100799.41;4854413;29;20053;-81
2022/09/03 11:20:20;;;;;;;1.83;1.73;;;;;;;29.50;38.13;100799.06;4857096;29;20500;-80
2022/09/03 11:22:52;;;;;;;1.35;1.25;;;;;;;29.83;37.40;100806.59;4838681;29;20579;-80
2022/09/03 11:25:24;;;;;;;1.67;1.58;;;;;;;30.07;37.30;100789.97;4840731;29;20572;-80
2022/09/03 11:28:18;;;;;;;1.40;1.30;;;;;;;30.06;37.77;100791.19;4837903;29;20061;-80
2022/09/03 11:31:12;;;;;;;1.60;1.50;;;;;;;29.91;37.79;100796.91;4837517;29;20057;-80
2022/09/03 11:33:50;;;;;;;1.35;1.27;;;;;;;30.38;37.29;100787.41;4865654;29;20065;-81
2022/09/03 11:36:37;;;;;;;1.92;1.40;;;;;;;29.87;37.51;100782.81;4825229;29;20417;-80
2022/09/03 11:39:38;;;;;;;1.80;1.70;;;;;;;30.51;37.47;100780.09;4850611;29;20057;-81
2022/09/03 11:42:34;;;;;;;1.60;1.50;;;;;;;30.33;37.07;100793.50;4869543;29;20060;-81
2022/09/03 11:45:36;;;;;;;1.73;1.60;;;;;;;30.43;37.49;100784.16;4852063;29;20064;-80
2022/09/03 11:48:18;;;;;;;1.55;1.20;;;;;;;30.66;36.44;100771.50;4816929;29;20557;-80
2022/09/03 11:50:54;;;;;;;2.10;1.33;;;;;;;30.81;36.42;100773.03;4841068;29;20060;-81
2022/09/03 11:53:33;;;;;;;2.75;1.48;;;;;;;30.90;36.37;100785.84;4851169;29;20057;-80
2022/09/03 11:56:16;;;;;;;4.20;1.38;;;;;;;31.07;36.37;100778.44;4828661;29;20049;-80
2022/09/03 11:58:46;;;;;;;1.40;1.30;;;;;;;31.14;36.21;100774.75;4839054;29;20049;-80
2022/09/03 12:01:18;;;;;;;1.50;1.40;;;;;;;30.48;37.07;100774.47;4855305;29;20058;-80
2022/09/03 12:03:53;;;;;;;1.52;1.42;;;;;;;30.61;37.06;100769.13;4836669;29;20049;-81
2022/09/03 12:06:24;;;;;;;2.05;1.52;;;;;;;30.60;38.00;100767.50;4854326;29;20057;-80